Time;durP1;ratioP1;P1;durP2;ratioP2;P2;SDS_P1;SDS_P2;PMS_P1;PMS_P2;Temp;Humidity;BMP_temperature;BMP_pressure;BME280_temperature;BME280_humidity;BME280_pressure;Samples;Min_cycle;Max_cycle;Signal;HPM_P1;HPM_P2
2021/12/27 00:01:17;;;;;;;23.23;14.05;;;-0.40;99.90;;;;;;5030827;28;20469;-65
2021/12/27 00:03:43;;;;;;;22.55;13.68;;;-0.40;99.90;;;;;;5032556;28;20139;-66
2021/12/27 00:06:10;;;;;;;22.85;14.48;;;-0.40;99.90;;;;;;5022191;28;20102;-64
2021/12/27 00:08:41;;;;;;;23.17;13.45;;;-0.40;99.90;;;;;;5027136;28;20176;-66
2021/12/27 00:11:12;;;;;;;21.77;14.23;;;-0.40;99.90;;;;;;5016626;28;20500;-65
2021/12/27 00:13:38;;;;;;;23.95;14.30;;;-0.40;99.90;;;;;;5024958;28;20123;-66
2021/12/27 00:16:04;;;;;;;23.98;14.13;;;-0.40;99.90;;;;;;5033598;28;20131;-65
2021/12/27 00:18:29;;;;;;;23.13;13.95;;;-0.40;99.90;;;;;;5036900;28;20053;-64
2021/12/27 00:20:55;;;;;;;22.33;14.00;;;-0.30;99.90;;;;;;5032587;28;20064;-65
2021/12/27 00:23:21;;;;;;;23.30;13.80;;;-0.30;99.90;;;;;;5023235;28;20128;-65
2021/12/27 00:25:47;;;;;;;23.02;13.30;;;-0.30;99.90;;;;;;5034066;28;20559;-65
2021/12/27 00:28:13;;;;;;;24.98;15.35;;;-0.30;99.90;;;;;;5023696;28;20053;-65
2021/12/27 00:30:38;;;;;;;24.38;14.85;;;-0.30;99.90;;;;;;5015399;28;20045;-66
2021/12/27 00:33:05;;;;;;;24.73;13.65;;;-0.30;99.90;;;;;;5020978;28;20045;-65
2021/12/27 00:35:32;;;;;;;22.20;14.15;;;-0.20;99.90;;;;;;5053622;28;20091;-67
2021/12/27 00:37:58;;;;;;;24.38;14.57;;;-0.20;99.90;;;;;;5020412;28;20065;-67
2021/12/27 00:40:25;;;;;;;21.00;13.98;;;-0.20;99.90;;;;;;5034776;28;20052;-64
2021/12/27 00:42:50;;;;;;;23.88;14.80;;;-0.20;99.90;;;;;;5033683;28;20545;-65
2021/12/27 00:45:17;;;;;;;22.92;14.40;;;-0.20;99.90;;;;;;5036618;28;20037;-65
2021/12/27 00:47:43;;;;;;;22.33;14.68;;;-0.20;99.90;;;;;;5035321;28;20048;-65
2021/12/27 00:50:09;;;;;;;25.65;16.33;;;-0.20;99.90;;;;;;5023674;28;20046;-64
2021/12/27 00:52:35;;;;;;;23.92;14.30;;;-0.20;99.90;;;;;;5050112;28;20056;-65
2021/12/27 00:55:07;;;;;;;24.45;14.32;;;-0.20;99.90;;;;;;5034875;28;20037;-66
2021/12/27 00:57:32;;;;;;;23.83;14.57;;;-0.10;99.90;;;;;;5035759;28;20175;-67
2021/12/27 00:59:58;;;;;;;26.48;15.27;;;-0.20;99.90;;;;;;5035689;28;20396;-65
2021/12/27 01:02:24;;;;;;;22.35;14.05;;;-0.10;99.90;;;;;;5024158;28;20053;-66
2021/12/27 01:04:49;;;;;;;24.45;14.98;;;-0.10;99.90;;;;;;4999607;28;20049;-65
2021/12/27 01:07:15;;;;;;;23.67;15.27;;;-0.10;99.90;;;;;;5031747;28;20053;-64
2021/12/27 01:10:01;;;;;;;22.00;14.77;;;-0.10;99.90;;;;;;5031911;28;20077;-67
2021/12/27 01:12:33;;;;;;;21.33;13.57;;;-0.10;99.90;;;;;;5016781;28;20114;-64
2021/12/27 01:17:39;;;;;;;20.80;14.20;;;-0.10;99.90;;;;;;5021661;28;20064;-66
2021/12/27 01:20:09;;;;;;;20.33;13.88;;;-0.10;99.90;;;;;;5024083;28;20041;-66
2021/12/27 01:22:34;;;;;;;23.58;14.65;;;-0.10;99.90;;;;;;5022597;28;20062;-68
2021/12/27 01:25:00;;;;;;;23.98;14.43;;;-0.10;99.90;;;;;;5023918;28;20059;-65
2021/12/27 01:27:26;;;;;;;24.92;14.55;;;-0.10;99.90;;;;;;5051350;28;20481;-66
2021/12/27 01:29:51;;;;;;;26.75;15.85;;;-0.10;99.90;;;;;;5023755;28;20061;-65
2021/12/27 01:32:17;;;;;;;24.85;14.90;;;-0.10;99.90;;;;;;5031662;28;20128;-66
2021/12/27 01:34:43;;;;;;;25.65;15.65;;;-0.10;99.90;;;;;;5032851;28;20064;-64
2021/12/27 01:37:08;;;;;;;26.40;15.80;;;-0.10;99.90;;;;;;5051908;28;20044;-66
2021/12/27 01:39:34;;;;;;;24.95;14.32;;;-0.10;99.90;;;;;;5021718;28;20046;-65
2021/12/27 01:42:00;;;;;;;28.27;16.45;;;-0.10;99.90;;;;;;5015128;28;20038;-66
2021/12/27 01:44:25;;;;;;;23.35;13.80;;;-0.10;99.90;;;;;;4999409;28;20120;-66
2021/12/27 01:46:53;;;;;;;24.83;15.60;;;0.00;99.90;;;;;;5013558;28;20057;-67
2021/12/27 01:49:18;;;;;;;25.40;15.32;;;0.00;99.90;;;;;;5015643;28;20473;-67
2021/12/27 01:51:45;;;;;;;23.50;14.85;;;0.00;99.90;;;;;;5015100;28;20081;-67
2021/12/27 01:54:10;;;;;;;25.35;16.05;;;0.00;99.90;;;;;;5015285;28;20049;-66
2021/12/27 01:56:36;;;;;;;26.20;15.25;;;0.00;99.90;;;;;;5031434;28;20133;-65
2021/12/27 01:59:02;;;;;;;26.02;15.68;;;0.00;99.90;;;;;;5015279;28;20057;-65
2021/12/27 02:01:28;;;;;;;25.63;15.30;;;0.00;99.90;;;;;;5010647;28;20061;-64
2021/12/27 02:03:55;;;;;;;24.98;15.27;;;0.00;99.90;;;;;;5014554;28;20050;-65
2021/12/27 02:06:21;;;;;;;26.30;16.20;;;0.00;99.90;;;;;;5013413;28;20455;-65
2021/12/27 02:08:47;;;;;;;25.08;15.68;;;0.00;99.90;;;;;;5015246;28;20057;-67
2021/12/27 02:11:17;;;;;;;24.15;15.77;;;0.00;99.90;;;;;;5014709;28;20429;-65
2021/12/27 02:13:44;;;;;;;23.38;15.20;;;0.00;99.90;;;;;;5031173;28;20050;-65
2021/12/27 02:16:15;;;;;;;22.60;14.70;;;0.00;99.90;;;;;;5012159;28;20046;-66
2021/12/27 02:18:41;;;;;;;25.42;16.15;;;0.00;99.90;;;;;;5015245;28;20124;-67
2021/12/27 02:21:07;;;;;;;25.90;15.82;;;0.00;99.90;;;;;;5013966;28;20426;-65
2021/12/27 02:23:33;;;;;;;27.02;16.17;;;0.00;99.90;;;;;;4997761;28;20042;-66
2021/12/27 02:25:59;;;;;;;25.02;15.32;;;0.10;99.90;;;;;;5014635;28;20077;-65
2021/12/27 02:28:25;;;;;;;30.15;16.98;;;0.00;99.90;;;;;;5032243;28;20081;-67
2021/12/27 02:30:54;;;;;;;27.02;16.25;;;0.00;99.90;;;;;;5014280;28;20370;-65
2021/12/27 02:33:20;;;;;;;27.48;16.42;;;0.10;99.90;;;;;;5014901;28;20046;-67
2021/12/27 02:35:53;;;;;;;26.08;15.82;;;0.10;99.90;;;;;;5014789;28;20088;-66
2021/12/27 02:38:23;;;;;;;26.98;16.65;;;0.10;99.90;;;;;;5014094;28;20095;-66
2021/12/27 02:40:51;;;;;;;27.45;16.95;;;0.10;99.90;;;;;;5014640;28;20107;-66
2021/12/27 02:43:22;;;;;;;26.40;15.73;;;0.10;99.90;;;;;;5013283;28;20049;-66
2021/12/27 02:45:53;;;;;;;24.83;14.43;;;0.10;99.90;;;;;;5013006;28;20060;-66
2021/12/27 02:48:22;;;;;;;28.30;16.40;;;0.10;99.90;;;;;;5029731;28;20172;-66
2021/12/27 02:50:49;;;;;;;25.42;15.82;;;0.10;99.90;;;;;;5015334;28;20447;-66
2021/12/27 02:53:15;;;;;;;25.40;15.90;;;0.10;99.90;;;;;;5031158;28;20405;-65
2021/12/27 02:55:41;;;;;;;30.48;17.58;;;0.10;99.90;;;;;;5014159;28;20064;-66
2021/12/27 02:58:07;;;;;;;25.65;17.20;;;0.10;99.90;;;;;;5015312;28;20038;-66
2021/12/27 03:00:39;;;;;;;24.80;16.70;;;0.10;99.90;;;;;;4997933;28;20050;-66
2021/12/27 03:03:05;;;;;;;27.30;16.48;;;0.10;99.90;;;;;;5005920;28;20053;-66
2021/12/27 03:05:31;;;;;;;25.40;16.20;;;0.10;99.90;;;;;;5014836;28;20197;-65
2021/12/27 03:07:58;;;;;;;27.48;16.23;;;0.10;99.90;;;;;;5013498;28;20124;-64
2021/12/27 03:10:27;;;;;;;26.92;17.77;;;0.10;99.90;;;;;;5013899;28;20045;-67
2021/12/27 03:12:54;;;;;;;29.42;17.30;;;0.10;99.90;;;;;;5013873;28;20059;-65
2021/12/27 03:15:22;;;;;;;24.67;16.55;;;0.10;99.90;;;;;;5015035;28;20049;-65
2021/12/27 03:17:48;;;;;;;27.73;16.77;;;0.20;99.90;;;;;;5013138;28;20385;-65
2021/12/27 03:20:16;;;;;;;26.23;16.48;;;0.10;99.90;;;;;;5017114;28;20112;-66
2021/12/27 03:22:42;;;;;;;26.70;16.52;;;0.10;99.90;;;;;;5035220;28;20045;-66
2021/12/27 03:25:10;;;;;;;23.45;16.05;;;0.10;99.90;;;;;;5017206;28;20330;-66
2021/12/27 03:27:37;;;;;;;26.40;16.75;;;0.20;99.90;;;;;;5000767;28;20486;-66
2021/12/27 03:30:08;;;;;;;24.65;16.02;;;0.20;99.90;;;;;;5017537;28;20057;-66
2021/12/27 03:32:36;;;;;;;28.70;16.45;;;0.20;99.90;;;;;;5031341;28;20183;-65
2021/12/27 03:35:08;;;;;;;25.67;16.55;;;0.20;99.90;;;;;;5017697;28;20053;-65
2021/12/27 03:37:35;;;;;;;27.27;15.82;;;0.20;99.90;;;;;;5017209;28;20056;-64
2021/12/27 03:40:02;;;;;;;25.92;15.70;;;0.20;99.90;;;;;;5018175;28;20147;-66
2021/12/27 03:42:28;;;;;;;28.20;16.48;;;0.20;99.90;;;;;;5016900;28;20419;-67
2021/12/27 03:44:53;;;;;;;25.98;16.13;;;0.20;99.90;;;;;;5016353;28;20072;-64
2021/12/27 03:47:19;;;;;;;26.45;16.40;;;0.20;99.90;;;;;;5016033;28;20049;-65
2021/12/27 03:49:44;;;;;;;25.75;16.55;;;0.20;99.90;;;;;;5017063;28;20149;-66
2021/12/27 03:52:10;;;;;;;24.67;15.93;;;0.30;99.90;;;;;;5030309;28;20054;-67
2021/12/27 03:54:35;;;;;;;29.95;16.70;;;0.30;99.90;;;;;;5014356;28;20111;-65
2021/12/27 03:57:01;;;;;;;27.50;16.95;;;0.30;99.90;;;;;;5031322;28;20091;-66
2021/12/27 04:02:08;;;;;;;26.83;17.45;;;0.30;99.90;;;;;;5016617;28;20623;-64
2021/12/27 04:04:33;;;;;;;27.50;16.88;;;0.30;99.90;;;;;;5016726;28;20120;-66
2021/12/27 04:07:00;;;;;;;26.98;17.02;;;0.30;99.90;;;;;;5016924;28;20045;-66
2021/12/27 04:09:26;;;;;;;26.88;16.77;;;0.30;99.90;;;;;;5016396;28;20390;-67
2021/12/27 04:11:52;;;;;;;26.27;16.42;;;0.30;99.90;;;;;;5007058;28;20053;-66
2021/12/27 04:14:17;;;;;;;26.95;17.02;;;0.30;99.90;;;;;;5014802;28;20041;-66
2021/12/27 04:16:43;;;;;;;26.27;16.73;;;0.30;99.90;;;;;;5016549;28;20061;-67
2021/12/27 04:19:08;;;;;;;26.50;16.73;;;0.30;99.90;;;;;;5016295;28;20057;-65
2021/12/27 04:21:34;;;;;;;23.85;16.67;;;0.30;99.90;;;;;;5016243;28;20530;-66
2021/12/27 04:24:00;;;;;;;26.58;16.60;;;0.30;99.90;;;;;;5016652;28;20050;-66
2021/12/27 04:26:25;;;;;;;28.55;17.20;;;0.30;99.90;;;;;;5015804;28;20517;-66
2021/12/27 04:28:51;;;;;;;25.17;15.93;;;0.40;99.90;;;;;;5016329;28;20411;-67
2021/12/27 04:31:17;;;;;;;26.35;16.70;;;0.30;99.90;;;;;;5016437;28;20055;-67
2021/12/27 04:33:43;;;;;;;27.83;16.80;;;0.40;99.90;;;;;;5016377;28;20049;-65
2021/12/27 04:36:09;;;;;;;29.92;15.88;;;0.40;99.90;;;;;;5050316;28;20056;-64
2021/12/27 04:38:35;;;;;;;28.33;17.00;;;0.40;99.90;;;;;;5033237;28;20065;-65
2021/12/27 04:41:02;;;;;;;28.58;16.92;;;0.40;99.90;;;;;;5012715;28;20505;-67
2021/12/27 04:43:27;;;;;;;26.05;16.98;;;0.40;99.90;;;;;;5012924;28;20104;-66
2021/12/27 04:45:54;;;;;;;28.00;17.23;;;0.40;99.90;;;;;;5012385;28;20093;-66
2021/12/27 04:48:22;;;;;;;27.60;17.02;;;0.40;99.90;;;;;;5013246;28;20401;-66
2021/12/27 04:50:48;;;;;;;26.45;17.92;;;0.40;99.90;;;;;;5017111;28;20121;-67
2021/12/27 04:53:14;;;;;;;27.92;17.27;;;0.40;99.90;;;;;;5016491;28;20183;-67
2021/12/27 04:55:39;;;;;;;26.35;16.35;;;0.40;99.90;;;;;;5015394;28;20088;-65
2021/12/27 04:58:10;;;;;;;26.40;16.80;;;0.40;99.90;;;;;;4999507;28;20132;-67
2021/12/27 05:00:37;;;;;;;30.45;17.42;;;0.40;99.90;;;;;;5015743;28;20084;-67
2021/12/27 05:03:04;;;;;;;28.02;17.30;;;0.40;99.90;;;;;;5013004;28;20384;-67
2021/12/27 05:05:33;;;;;;;28.45;18.48;;;0.40;99.90;;;;;;5013720;28;20047;-66
2021/12/27 05:08:03;;;;;;;31.52;17.60;;;0.40;99.90;;;;;;5015692;28;20121;-66
2021/12/27 05:10:30;;;;;;;31.30;17.23;;;0.40;99.90;;;;;;4998783;28;20065;-65
2021/12/27 05:12:55;;;;;;;28.77;17.98;;;0.40;99.90;;;;;;5014803;28;20064;-66
2021/12/27 05:15:22;;;;;;;31.95;18.25;;;0.40;99.90;;;;;;5033194;28;20053;-67
2021/12/27 05:17:47;;;;;;;29.73;17.60;;;0.40;99.90;;;;;;5015060;28;20054;-67
2021/12/27 05:20:13;;;;;;;28.95;17.58;;;0.40;99.90;;;;;;5015725;28;20045;-65
2021/12/27 05:22:40;;;;;;;29.77;17.60;;;0.50;99.90;;;;;;4998442;28;20474;-67
2021/12/27 05:25:11;;;;;;;33.50;16.95;;;0.40;99.90;;;;;;5032645;28;20057;-66
2021/12/27 05:27:40;;;;;;;34.45;16.77;;;0.40;99.90;;;;;;5032954;28;20049;-64
2021/12/27 05:30:07;;;;;;;28.50;17.38;;;0.40;99.90;;;;;;5031645;28;20061;-66
2021/12/27 05:32:34;;;;;;;28.00;16.33;;;0.40;99.90;;;;;;5014346;28;20184;-67
2021/12/27 05:34:59;;;;;;;30.30;17.60;;;0.40;99.90;;;;;;5015374;28;20136;-65
2021/12/27 05:37:25;;;;;;;28.63;17.13;;;0.40;99.90;;;;;;5015389;28;20153;-65
2021/12/27 05:39:50;;;;;;;28.95;17.35;;;0.40;99.90;;;;;;5010420;28;20422;-66
2021/12/27 05:42:16;;;;;;;32.05;18.00;;;0.40;99.90;;;;;;5031464;28;20481;-67
2021/12/27 05:44:42;;;;;;;32.15;18.40;;;0.50;99.90;;;;;;5015345;28;20072;-66
2021/12/27 05:47:07;;;;;;;32.90;18.08;;;0.40;99.90;;;;;;5015083;28;20049;-67
2021/12/27 05:49:33;;;;;;;30.05;17.15;;;0.50;99.90;;;;;;5031928;28;20056;-68
2021/12/27 05:51:58;;;;;;;30.23;17.67;;;0.40;99.90;;;;;;5015075;28;20435;-67
2021/12/27 05:54:24;;;;;;;31.50;17.40;;;0.40;99.90;;;;;;5014354;28;20099;-66
2021/12/27 05:56:50;;;;;;;28.13;17.05;;;0.50;99.90;;;;;;5014581;28;20046;-67
2021/12/27 05:59:17;;;;;;;29.77;18.55;;;0.40;99.90;;;;;;5015016;28;20053;-67
2021/12/27 06:01:44;;;;;;;32.28;18.83;;;0.50;99.90;;;;;;5014719;28;20461;-67
2021/12/27 06:04:09;;;;;;;33.67;18.70;;;0.50;99.90;;;;;;5014520;28;20061;-66
2021/12/27 06:06:36;;;;;;;35.05;17.85;;;0.50;99.90;;;;;;5015274;28;20445;-66
2021/12/27 06:09:02;;;;;;;31.50;18.58;;;0.40;99.90;;;;;;5014427;28;20049;-66
2021/12/27 06:11:27;;;;;;;34.90;19.30;;;0.50;99.90;;;;;;5014372;28;20059;-66
2021/12/27 06:13:53;;;;;;;33.10;18.75;;;0.50;99.90;;;;;;5014743;28;20397;-65
2021/12/27 06:16:20;;;;;;;33.20;19.45;;;0.40;99.90;;;;;;5014725;28;20060;-67
2021/12/27 06:18:46;;;;;;;36.55;19.40;;;0.50;99.90;;;;;;5014179;28;20104;-65
2021/12/27 06:21:11;;;;;;;38.53;19.48;;;0.50;99.90;;;;;;5013475;28;20072;-66
2021/12/27 06:23:37;;;;;;;34.67;18.88;;;0.50;99.90;;;;;;5030318;28;20049;-65
2021/12/27 06:26:04;;;;;;;33.42;19.15;;;0.50;99.90;;;;;;5031879;28;20490;-67
2021/12/27 06:28:31;;;;;;;38.67;20.20;;;0.50;99.90;;;;;;5014464;28;20054;-67
2021/12/27 06:30:57;;;;;;;38.60;20.77;;;0.50;99.90;;;;;;5032328;28;20203;-67
2021/12/27 06:33:23;;;;;;;39.45;20.20;;;0.50;99.90;;;;;;5014721;28;20045;-67
2021/12/27 06:35:49;;;;;;;37.80;20.13;;;0.50;99.90;;;;;;5031598;28;20490;-67
2021/12/27 06:38:14;;;;;;;40.10;20.63;;;0.50;99.90;;;;;;5014407;28;20049;-67
2021/12/27 06:40:40;;;;;;;37.67;20.13;;;0.50;99.90;;;;;;5013470;28;20052;-66
2021/12/27 06:43:05;;;;;;;37.40;19.67;;;0.50;99.90;;;;;;5015274;28;20605;-66
2021/12/27 06:45:31;;;;;;;39.92;21.02;;;0.50;99.90;;;;;;5030785;28;20049;-67
2021/12/27 06:47:57;;;;;;;36.20;20.58;;;0.60;99.90;;;;;;5014091;28;20060;-67
2021/12/27 06:50:23;;;;;;;39.30;20.85;;;0.50;99.90;;;;;;5016317;28;20045;-66
2021/12/27 06:52:49;;;;;;;40.72;21.13;;;0.50;99.90;;;;;;5017671;28;20054;-66
2021/12/27 06:55:14;;;;;;;37.47;20.58;;;0.60;99.90;;;;;;5033378;28;20060;-66
2021/12/27 06:57:40;;;;;;;35.85;19.85;;;0.50;99.90;;;;;;5017552;28;20055;-67
2021/12/27 07:00:09;;;;;;;38.35;20.17;;;0.50;99.90;;;;;;5016701;28;20132;-67
2021/12/27 07:02:35;;;;;;;35.33;21.40;;;0.50;99.90;;;;;;5035567;28;20064;-67
2021/12/27 07:05:01;;;;;;;34.38;20.25;;;0.50;99.90;;;;;;5016244;28;20405;-66
2021/12/27 07:07:26;;;;;;;39.47;19.27;;;0.50;99.90;;;;;;5017457;28;20109;-65
2021/12/27 07:09:52;;;;;;;36.30;20.27;;;0.50;99.90;;;;;;5017020;28;20374;-66
2021/12/27 07:12:17;;;;;;;39.25;20.65;;;0.60;99.90;;;;;;5012310;28;20046;-67
2021/12/27 07:14:43;;;;;;;39.70;20.88;;;0.50;99.90;;;;;;5031395;28;20099;-65
2021/12/27 07:17:09;;;;;;;34.53;19.80;;;0.50;99.90;;;;;;5030363;28;20057;-64
2021/12/27 07:19:35;;;;;;;35.88;19.77;;;0.50;99.90;;;;;;5017335;28;20489;-66
2021/12/27 07:22:01;;;;;;;34.50;20.15;;;0.60;99.90;;;;;;5015595;28;20088;-66
2021/12/27 07:24:26;;;;;;;42.05;20.75;;;0.60;99.90;;;;;;5016444;28;20045;-67
2021/12/27 07:26:52;;;;;;;38.45;20.70;;;0.60;99.90;;;;;;5029635;28;20073;-66
2021/12/27 07:29:19;;;;;;;42.03;21.05;;;0.60;99.90;;;;;;5017031;28;20485;-67
2021/12/27 07:31:45;;;;;;;33.72;19.52;;;0.60;99.90;;;;;;5017473;28;20057;-66
2021/12/27 07:34:12;;;;;;;38.83;20.35;;;0.60;99.90;;;;;;5016498;28;20505;-67
2021/12/27 07:36:38;;;;;;;36.00;19.70;;;0.60;99.90;;;;;;5017475;28;20619;-67
2021/12/27 07:39:06;;;;;;;44.28;21.15;;;0.60;99.90;;;;;;5030793;28;20085;-65
2021/12/27 07:41:31;;;;;;;35.70;20.02;;;0.60;99.90;;;;;;5033686;28;20049;-66
2021/12/27 07:43:57;;;;;;;44.60;20.88;;;0.60;99.90;;;;;;5016803;28;20059;-66
2021/12/27 07:46:24;;;;;;;41.00;19.65;;;0.70;99.90;;;;;;5008709;28;20049;-65
2021/12/27 07:48:50;;;;;;;42.97;21.13;;;0.70;99.90;;;;;;5009558;28;20060;-65
2021/12/27 07:51:15;;;;;;;45.47;20.90;;;0.80;99.90;;;;;;5016942;28;20057;-65
2021/12/27 07:53:41;;;;;;;43.72;20.60;;;0.70;99.90;;;;;;5015600;28;20049;-67
2021/12/27 07:56:10;;;;;;;43.42;19.92;;;0.70;99.90;;;;;;5015306;28;20053;-67
2021/12/27 07:58:36;;;;;;;43.83;20.05;;;0.70;99.90;;;;;;5016991;28;20092;-66
2021/12/27 08:01:02;;;;;;;42.05;20.05;;;0.70;99.90;;;;;;5004205;28;20156;-66
2021/12/27 08:03:28;;;;;;;43.55;20.52;;;0.80;99.90;;;;;;5005233;28;20042;-68
2021/12/27 08:05:54;;;;;;;44.13;21.05;;;0.80;99.90;;;;;;5022888;28;20045;-68
2021/12/27 08:08:19;;;;;;;45.60;21.30;;;0.70;99.90;;;;;;5017926;28;20049;-66
2021/12/27 08:10:45;;;;;;;37.75;20.23;;;0.80;99.90;;;;;;5016392;28;20049;-67
2021/12/27 08:13:11;;;;;;;45.03;21.50;;;0.80;99.90;;;;;;5030517;28;20447;-66
2021/12/27 08:15:37;;;;;;;48.38;22.02;;;0.80;99.90;;;;;;5013267;28;20091;-69
2021/12/27 08:18:03;;;;;;;43.30;21.13;;;0.80;99.90;;;;;;5007307;28;20053;-66
2021/12/27 08:20:29;;;;;;;54.17;23.15;;;0.80;99.90;;;;;;5017013;28;20049;-67
2021/12/27 08:22:54;;;;;;;45.67;20.95;;;0.80;99.90;;;;;;5012781;28;20045;-65
2021/12/27 08:25:20;;;;;;;49.13;22.33;;;0.80;99.90;;;;;;5007652;28;20136;-68
2021/12/27 08:27:46;;;;;;;51.38;22.60;;;0.90;99.90;;;;;;5031545;28;20053;-67
2021/12/27 08:30:12;;;;;;;45.20;21.08;;;0.80;99.90;;;;;;5033641;28;20056;-67
2021/12/27 08:32:41;;;;;;;47.83;20.67;;;0.80;99.90;;;;;;5015897;28;20054;-67
2021/12/27 08:35:07;;;;;;;50.92;21.27;;;0.80;99.90;;;;;;5032065;28;20505;-66
2021/12/27 08:37:33;;;;;;;50.35;23.13;;;0.80;99.90;;;;;;5015596;28;20500;-67
2021/12/27 08:39:59;;;;;;;52.08;21.88;;;0.90;99.90;;;;;;5029883;28;20053;-67
2021/12/27 08:42:25;;;;;;;54.13;21.27;;;0.90;99.90;;;;;;5016424;28;20057;-66
2021/12/27 08:44:52;;;;;;;50.17;22.20;;;0.90;99.90;;;;;;5015145;28;20456;-66
2021/12/27 08:47:18;;;;;;;47.65;21.35;;;0.90;99.90;;;;;;5014821;28;20049;-66
2021/12/27 08:49:44;;;;;;;53.63;21.55;;;0.90;99.90;;;;;;5014972;28;20049;-68
2021/12/27 08:52:10;;;;;;;53.88;22.73;;;0.90;99.90;;;;;;5016502;28;20115;-66
2021/12/27 08:54:36;;;;;;;63.17;23.73;;;0.90;99.90;;;;;;5013398;28;20053;-67
2021/12/27 08:57:04;;;;;;;54.92;22.02;;;0.90;99.90;;;;;;5016092;28;20143;-67
2021/12/27 08:59:30;;;;;;;60.88;24.63;;;1.00;99.90;;;;;;5015395;28;20054;-66
2021/12/27 09:01:56;;;;;;;60.75;22.40;;;0.90;99.90;;;;;;5014261;28;20053;-66
2021/12/27 09:04:23;;;;;;;60.67;22.90;;;1.00;99.90;;;;;;5016728;28;20409;-66
2021/12/27 09:06:49;;;;;;;57.88;22.63;;;1.00;99.90;;;;;;5014547;28;20545;-66
2021/12/27 09:09:15;;;;;;;61.00;23.65;;;1.00;99.90;;;;;;5014757;28;20049;-65
2021/12/27 09:11:44;;;;;;;57.70;23.83;;;1.00;99.90;;;;;;5014787;28;20099;-68
2021/12/27 09:14:12;;;;;;;69.13;25.13;;;1.00;99.90;;;;;;5032396;28;20057;-66
2021/12/27 09:16:38;;;;;;;67.03;24.05;;;1.10;99.90;;;;;;5013605;28;20430;-67
2021/12/27 09:19:04;;;;;;;67.47;24.20;;;1.10;99.90;;;;;;5016332;28;20111;-68
2021/12/27 09:21:29;;;;;;;66.30;25.30;;;1.10;99.90;;;;;;5014641;28;20084;-65
2021/12/27 09:23:55;;;;;;;68.95;24.70;;;1.10;99.90;;;;;;5016230;28;20137;-67
2021/12/27 09:26:20;;;;;;;65.13;23.70;;;1.20;99.90;;;;;;5014984;28;20056;-66
2021/12/27 09:28:46;;;;;;;59.47;23.92;;;1.20;99.90;;;;;;5015375;28;20417;-65
2021/12/27 09:31:11;;;;;;;68.28;25.15;;;1.20;99.90;;;;;;5014773;28;20136;-67
2021/12/27 09:33:37;;;;;;;67.22;23.90;;;1.20;99.90;;;;;;5014807;28;20049;-67
2021/12/27 09:36:03;;;;;;;66.50;23.77;;;1.20;99.90;;;;;;5010907;28;20103;-66
2021/12/27 09:38:29;;;;;;;74.57;24.30;;;1.30;99.90;;;;;;5036049;28;20139;-66
2021/12/27 09:40:55;;;;;;;77.45;25.45;;;1.30;99.90;;;;;;5038862;28;20662;-68
2021/12/27 09:43:22;;;;;;;71.78;23.85;;;1.30;99.90;;;;;;5028515;28;20112;-68
2021/12/27 09:45:48;;;;;;;70.88;25.05;;;1.30;99.90;;;;;;5049324;28;20068;-66
2021/12/27 09:48:13;;;;;;;66.22;23.52;;;1.30;99.90;;;;;;5030208;28;20401;-65
2021/12/27 09:50:41;;;;;;;78.45;26.15;;;1.40;99.90;;;;;;5034309;28;20122;-66
2021/12/27 09:53:07;;;;;;;70.63;24.20;;;1.40;99.90;;;;;;5034071;28;20155;-66
2021/12/27 09:55:33;;;;;;;70.45;25.02;;;1.50;99.90;;;;;;5033952;28;20060;-65
2021/12/27 09:57:59;;;;;;;65.97;25.33;;;1.60;99.90;;;;;;5033277;28;20049;-67
2021/12/27 10:00:26;;;;;;;70.72;26.10;;;1.50;99.90;;;;;;5051539;28;20128;-67
2021/12/27 10:02:55;;;;;;;87.53;24.95;;;1.50;99.90;;;;;;5028651;28;20049;-68
2021/12/27 10:05:23;;;;;;;65.20;24.38;;;1.60;99.90;;;;;;5032923;28;20053;-66
2021/12/27 10:07:49;;;;;;;68.95;23.77;;;1.60;99.90;;;;;;4998426;28;20075;-66
2021/12/27 10:10:15;;;;;;;74.68;24.38;;;1.60;99.90;;;;;;5030615;28;20045;-66
2021/12/27 10:12:41;;;;;;;66.32;25.10;;;1.60;99.90;;;;;;5026393;28;20045;-68
2021/12/27 10:15:10;;;;;;;73.82;26.27;;;1.60;99.90;;;;;;5015151;28;20493;-67
2021/12/27 10:17:37;;;;;;;83.07;26.10;;;1.60;99.90;;;;;;5024021;28;20351;-67
2021/12/27 10:20:19;;;;;;;85.03;25.10;;;1.60;99.90;;;;;;5033590;28;20049;-67
2021/12/27 10:22:47;;;;;;;80.07;25.08;;;1.70;99.90;;;;;;5033421;28;20048;-68
2021/12/27 10:25:15;;;;;;;82.25;26.38;;;1.70;99.90;;;;;;5036770;28;20052;-66
2021/12/27 10:27:41;;;;;;;93.20;27.20;;;1.70;99.90;;;;;;5036970;28;20053;-66
2021/12/27 10:30:31;;;;;;;76.28;24.00;;;1.70;99.90;;;;;;5056699;28;20057;-66
2021/12/27 10:33:13;;;;;;;92.47;28.60;;;1.80;99.90;;;;;;5025139;28;20076;-67
2021/12/27 10:35:42;;;;;;;79.60;24.75;;;1.80;99.90;;;;;;5042488;28;20053;-68
2021/12/27 10:38:15;;;;;;;89.22;26.35;;;1.80;99.90;;;;;;5036348;28;20408;-66
2021/12/27 10:41:09;;;;;;;82.05;25.50;;;1.90;99.90;;;;;;5054030;28;20056;-68
2021/12/27 10:43:40;;;;;;;82.32;24.63;;;1.90;99.90;;;;;;5031687;28;20053;-67
2021/12/27 10:46:14;;;;;;;87.55;26.60;;;1.90;99.90;;;;;;5024054;28;20514;-67
2021/12/27 10:48:43;;;;;;;77.93;26.20;;;2.00;99.90;;;;;;5024403;28;20477;-66
2021/12/27 10:51:09;;;;;;;84.32;25.98;;;2.00;99.90;;;;;;5002605;28;20045;-66
2021/12/27 10:53:47;;;;;;;94.03;25.80;;;2.00;99.90;;;;;;5034196;28;20060;-67
2021/12/27 10:56:14;;;;;;;85.82;25.70;;;2.20;99.90;;;;;;5021672;28;20054;-66
2021/12/27 10:58:50;;;;;;;102.25;25.60;;;2.10;99.90;;;;;;5026537;28;20057;-68
2021/12/27 11:01:19;;;;;;;85.50;25.35;;;2.10;99.90;;;;;;5037925;28;20123;-65
2021/12/27 11:03:47;;;;;;;78.38;25.20;;;2.20;99.90;;;;;;5051814;28;20049;-68
2021/12/27 11:06:19;;;;;;;83.45;25.80;;;2.10;99.90;;;;;;5017673;28;20060;-66
2021/12/27 11:08:46;;;;;;;87.55;26.90;;;2.20;99.90;;;;;;5038222;28;20053;-68
2021/12/27 11:11:13;;;;;;;77.43;26.95;;;2.20;99.90;;;;;;5036884;28;20080;-66
2021/12/27 11:13:40;;;;;;;92.15;26.13;;;2.20;99.90;;;;;;5055644;28;20503;-66
2021/12/27 11:16:05;;;;;;;83.32;26.55;;;2.20;99.90;;;;;;5020691;28;20118;-67
2021/12/27 11:18:31;;;;;;;92.47;28.08;;;2.30;99.90;;;;;;5053218;28;20048;-67
2021/12/27 11:21:02;;;;;;;83.18;26.33;;;2.20;99.90;;;;;;5053067;28;20059;-66
2021/12/27 11:23:28;;;;;;;85.80;26.00;;;2.20;99.90;;;;;;5054253;28;20045;-68
2021/12/27 11:26:01;;;;;;;96.38;27.42;;;2.20;99.90;;;;;;5052972;28;20045;-67
2021/12/27 11:28:29;;;;;;;103.25;27.27;;;2.20;99.90;;;;;;5040862;28;20131;-67
2021/12/27 11:30:56;;;;;;;84.75;26.92;;;2.30;99.90;;;;;;5033319;28;20076;-68
2021/12/27 11:33:22;;;;;;;95.13;26.98;;;2.30;99.90;;;;;;5041101;28;20049;-67
2021/12/27 11:35:57;;;;;;;100.47;26.77;;;2.30;99.90;;;;;;5036020;28;20459;-66
2021/12/27 11:38:34;;;;;;;87.22;25.52;;;2.30;99.90;;;;;;5031281;28;20449;-69
2021/12/27 11:41:03;;;;;;;84.45;24.08;;;2.30;99.90;;;;;;5054419;28;20053;-66
2021/12/27 11:43:49;;;;;;;92.75;26.92;;;2.30;99.90;;;;;;5036449;28;20136;-68
2021/12/27 11:46:15;;;;;;;79.20;24.88;;;2.30;99.90;;;;;;5053810;28;20053;-68
2021/12/27 11:48:47;;;;;;;87.07;25.88;;;2.40;99.90;;;;;;5034038;28;20049;-69
2021/12/27 11:51:14;;;;;;;72.90;24.95;;;2.40;99.90;;;;;;5052584;28;20064;-68
2021/12/27 11:53:48;;;;;;;94.18;26.90;;;2.40;99.90;;;;;;5037285;28;20128;-66
2021/12/27 11:56:39;;;;;;;88.47;28.17;;;2.40;99.90;;;;;;5036722;28;20049;-68
2021/12/27 11:59:25;;;;;;;91.63;28.73;;;2.50;99.90;;;;;;5037221;28;20052;-66
2021/12/27 12:01:56;;;;;;;84.82;29.30;;;2.50;99.90;;;;;;5036214;28;20477;-67
2021/12/27 12:04:47;;;;;;;94.70;27.65;;;2.60;99.90;;;;;;5036218;28;20392;-67
2021/12/27 12:07:34;;;;;;;97.43;28.00;;;2.60;99.90;;;;;;5035233;28;20092;-67
2021/12/27 12:10:00;;;;;;;95.57;27.73;;;2.60;99.90;;;;;;5036579;28;20083;-67
2021/12/27 12:12:28;;;;;;;88.18;28.42;;;2.60;99.90;;;;;;5036579;28;20152;-67
2021/12/27 12:14:56;;;;;;;89.47;28.95;;;2.70;99.90;;;;;;5016890;28;20084;-67
2021/12/27 12:17:40;;;;;;;95.50;29.05;;;2.70;99.90;;;;;;5019717;28;20379;-67
2021/12/27 12:20:24;;;;;;;84.63;28.77;;;2.70;99.90;;;;;;5018552;28;20063;-67
2021/12/27 12:23:04;;;;;;;81.72;26.75;;;2.80;99.90;;;;;;5025135;28;20050;-68
2021/12/27 12:25:30;;;;;;;88.97;30.40;;;2.80;99.90;;;;;;5034617;28;20052;-68
2021/12/27 12:28:03;;;;;;;93.97;27.95;;;2.80;99.90;;;;;;5040854;28;20493;-67
2021/12/27 12:30:38;;;;;;;95.88;29.17;;;2.80;99.90;;;;;;5036664;28;20060;-68
2021/12/27 12:33:14;;;;;;;88.85;26.52;;;2.90;99.90;;;;;;5019630;28;20053;-68
2021/12/27 12:35:45;;;;;;;86.68;29.73;;;2.80;99.90;;;;;;5022644;28;20126;-68
2021/12/27 12:38:13;;;;;;;83.20;26.70;;;2.80;99.90;;;;;;5035742;28;20518;-67
2021/12/27 12:40:40;;;;;;;90.70;27.95;;;2.80;99.90;;;;;;5036134;28;20052;-68
2021/12/27 12:43:06;;;;;;;82.05;27.20;;;2.80;99.90;;;;;;5053960;28;20045;-68